createdAt,value
2023-03-06T00:03:29.256Z,2.63
2023-03-06T00:08:34.149Z,2.35
2023-03-06T00:13:37.655Z,2.30
2023-03-06T00:18:41.706Z,2.45
2023-03-06T00:23:46.870Z,2.42
2023-03-06T00:28:50.300Z,2.40
2023-03-06T00:33:53.885Z,2.70
2023-03-06T00:38:58.696Z,2.22
2023-03-06T00:44:02.104Z,2.50
2023-03-06T00:49:05.604Z,2.45
2023-03-06T00:54:10.387Z,2.47
2023-03-06T00:59:13.869Z,2.70
2023-03-06T01:04:17.249Z,2.58
2023-03-06T01:09:22.261Z,2.40
2023-03-06T01:14:26.007Z,2.60
2023-03-06T01:19:29.432Z,2.60
2023-03-06T01:24:34.181Z,2.65
2023-03-06T01:29:37.617Z,2.70
2023-03-06T01:34:41.026Z,2.78
2023-03-06T01:39:45.962Z,2.80
2023-03-06T01:45:06.640Z,2.42
2023-03-06T01:50:14.407Z,2.60
2023-03-06T01:55:25.974Z,2.70
2023-03-06T02:00:31.118Z,2.70
2023-03-06T02:05:35.126Z,2.50
2023-03-06T02:10:42.214Z,2.95
2023-03-06T02:15:45.627Z,2.45
2023-03-06T02:20:54.462Z,2.38
2023-03-06T02:31:03.842Z,2.60
2023-03-06T02:36:11.795Z,2.70
2023-03-06T02:41:16.821Z,2.67
2023-03-06T02:46:21.783Z,2.70
2023-03-06T02:51:25.386Z,2.35
2023-03-06T02:56:30.267Z,2.90
2023-03-06T03:01:34.460Z,2.80
2023-03-06T03:06:39.556Z,2.72
2023-03-06T03:11:46.031Z,2.55
2023-03-06T03:16:49.604Z,2.60
2023-03-06T03:21:53.077Z,2.80
2023-03-06T03:27:01.049Z,2.75
2023-03-06T03:32:05.214Z,2.75
2023-03-06T03:37:08.791Z,2.90
2023-03-06T03:42:13.687Z,2.65
2023-03-06T03:47:17.376Z,2.53
2023-03-06T03:52:21.218Z,2.70
2023-03-06T03:57:26.498Z,2.45
2023-03-06T04:02:31.935Z,2.60
2023-03-06T04:07:50.293Z,2.75
2023-03-06T04:12:55.279Z,2.63
2023-03-06T04:17:58.957Z,2.70
2023-03-06T04:23:04.530Z,2.90
2023-03-06T04:28:11.687Z,2.58
2023-03-06T04:33:17.328Z,2.70
2023-03-06T04:38:21.393Z,2.60
2023-03-06T04:43:26.561Z,2.90
2023-03-06T04:48:30.002Z,2.65
2023-03-06T04:53:33.872Z,2.70
2023-03-06T04:58:38.970Z,3.00
2023-03-06T05:03:42.582Z,2.72
2023-03-06T05:08:46.016Z,2.80
2023-03-06T05:13:52.008Z,2.80
2023-03-06T05:18:55.393Z,2.55
2023-03-06T05:23:58.805Z,2.67
2023-03-06T05:29:03.580Z,2.65
2023-03-06T05:34:06.999Z,2.60
2023-03-06T05:39:11.171Z,2.55
2023-03-06T05:44:16.060Z,2.50
2023-03-06T05:49:19.512Z,2.67
2023-03-06T05:54:24.399Z,2.55
2023-03-06T05:59:29.492Z,2.70
2023-03-06T06:04:33.091Z,2.80
2023-03-06T06:09:36.463Z,2.80
2023-03-06T06:14:41.418Z,2.80
2023-03-06T06:19:45.162Z,2.80
2023-03-06T06:24:48.549Z,2.60
2023-03-06T06:29:53.615Z,2.40
2023-03-06T06:34:57.034Z,2.55
2023-03-06T06:40:00.502Z,2.63
2023-03-06T06:45:06.952Z,2.50
2023-03-06T06:50:14.585Z,2.55
2023-03-06T06:55:18.586Z,2.80
2023-03-06T07:00:25.382Z,2.47
2023-03-06T07:05:28.800Z,2.20
2023-03-06T07:10:32.394Z,2.38
2023-03-06T07:15:37.196Z,2.60
2023-03-06T07:20:40.795Z,2.40
2023-03-06T07:25:44.286Z,2.50
2023-03-06T07:30:49.384Z,2.70
2023-03-06T07:35:52.832Z,2.75
2023-03-06T07:40:56.229Z,2.60
2023-03-06T07:46:01.894Z,2.40
2023-03-06T07:51:09.732Z,2.45
2023-03-06T07:56:13.995Z,2.67
2023-03-06T08:01:23.547Z,2.17
2023-03-06T08:06:29.161Z,2.60
2023-03-06T08:11:33.271Z,2.60
2023-03-06T08:16:38.109Z,2.78
2023-03-06T08:21:41.505Z,2.78
2023-03-06T08:26:45.096Z,2.22
2023-03-06T08:31:49.962Z,2.67
2023-03-06T08:36:53.441Z,2.53
2023-03-06T08:41:56.906Z,2.55
2023-03-06T08:47:01.751Z,2.30
2023-03-06T08:52:05.460Z,2.33
2023-03-06T08:57:09.177Z,2.58
2023-03-06T09:02:15.899Z,2.40
2023-03-06T09:07:19.328Z,2.35
2023-03-06T09:12:22.725Z,2.60
2023-03-06T09:17:27.549Z,2.65
2023-03-06T09:22:30.978Z,2.50
2023-03-06T09:27:34.464Z,2.78
2023-03-06T09:32:39.297Z,2.75
2023-03-06T09:37:43.136Z,2.85
2023-03-06T09:42:46.636Z,2.95
2023-03-06T09:47:58.693Z,3.20
2023-03-06T09:53:20.131Z,2.95
2023-03-06T09:58:27.249Z,3.00
2023-03-06T10:03:39.537Z,2.90
2023-03-06T10:08:52.802Z,2.92
2023-03-06T10:14:15.594Z,2.90
2023-03-06T10:19:22.051Z,2.90
2023-03-06T10:24:50.974Z,3.08
2023-03-06T10:30:04.890Z,3.05
2023-03-06T10:35:20.217Z,2.90
2023-03-06T10:40:32.433Z,3.00
2023-03-06T10:45:48.682Z,3.00
2023-03-06T10:51:18.608Z,3.13
2023-03-06T10:56:31.365Z,3.20
2023-03-06T11:01:35.696Z,3.00
2023-03-06T11:06:40.527Z,3.05
2023-03-06T11:11:43.951Z,3.00
2023-03-06T11:16:53.099Z,3.35
2023-03-06T11:22:07.257Z,3.13
2023-03-06T11:27:25.135Z,3.22
2023-03-06T11:32:36.659Z,3.05
2023-03-06T11:37:48.886Z,3.30
2023-03-06T11:43:04.322Z,3.45
2023-03-06T11:48:24.699Z,3.30
2023-03-06T11:53:35.445Z,3.05
2023-03-06T11:59:02.276Z,3.30
2023-03-06T12:04:53.434Z,3.42
2023-03-06T12:10:18.579Z,3.50
2023-03-06T12:15:40.063Z,3.50
2023-03-06T12:20:57.944Z,3.38
2023-03-06T12:26:14.671Z,3.10
2023-03-06T12:31:47.526Z,3.35
2023-03-06T12:37:05.593Z,3.50
2023-03-06T12:42:38.093Z,3.72
2023-03-06T12:47:46.882Z,3.50
2023-03-06T12:52:50.918Z,3.20
2023-03-06T12:57:55.803Z,3.70
2023-03-06T13:03:16.365Z,3.65
2023-03-06T13:09:00.383Z,3.90
2023-03-06T13:14:27.266Z,3.85
2023-03-06T13:19:30.701Z,3.58
2023-03-06T13:24:37.074Z,3.47
2023-03-06T13:30:27.179Z,3.95
2023-03-06T13:35:58.277Z,3.72
2023-03-06T13:41:35.408Z,3.67
2023-03-06T13:46:40.400Z,3.70
2023-03-06T13:52:04.760Z,3.47
2023-03-06T13:57:50.772Z,3.35
2023-03-06T14:09:29.979Z,3.72
2023-03-06T14:14:57.032Z,3.42
2023-03-06T14:20:06.786Z,3.55
2023-03-06T14:25:20.915Z,3.50
2023-03-06T14:30:26.730Z,3.40
2023-03-06T14:35:34.385Z,3.33
2023-03-06T14:40:45.331Z,3.50
2023-03-06T14:45:58.666Z,3.38
2023-03-06T14:51:03.475Z,3.33
2023-03-06T14:56:08.787Z,3.10
2023-03-06T15:01:14.642Z,3.30
2023-03-06T15:06:22.287Z,3.03
2023-03-06T15:11:25.739Z,3.10
2023-03-06T15:16:30.437Z,3.08
2023-03-06T15:21:39.193Z,3.03
2023-03-06T15:26:42.625Z,3.15
2023-03-06T15:31:47.657Z,2.90
2023-03-06T15:36:56.370Z,2.80
2023-03-06T15:42:01.350Z,3.10
2023-03-06T15:47:08.885Z,3.00
2023-03-06T15:52:14.000Z,2.95
2023-03-06T15:57:29.062Z,3.05
2023-03-06T16:02:32.472Z,2.88
2023-03-06T16:07:39.653Z,2.95
2023-03-06T16:12:47.539Z,3.05
2023-03-06T16:17:51.752Z,2.92
2023-03-06T16:22:57.137Z,2.78
2023-03-06T16:28:01.751Z,2.65
2023-03-06T16:33:06.057Z,2.55
2023-03-06T16:38:11.948Z,2.88
2023-03-06T16:43:16.146Z,2.58
2023-03-06T16:48:19.654Z,2.90
2023-03-06T16:53:24.441Z,2.63
2023-03-06T16:58:30.672Z,2.50
2023-03-06T17:03:34.314Z,2.60
2023-03-06T17:08:39.105Z,2.38
2023-03-06T17:13:42.810Z,2.50
2023-03-06T17:18:47.448Z,2.30
2023-03-06T17:23:52.199Z,2.45
2023-03-06T17:28:56.136Z,2.50
2023-03-06T17:34:00.697Z,2.50
2023-03-06T17:39:06.255Z,2.45
2023-03-06T17:44:11.946Z,2.30
2023-03-06T17:49:15.359Z,2.38
2023-03-06T17:54:20.401Z,2.20
2023-03-06T17:59:23.852Z,2.50
2023-03-06T18:04:28.200Z,2.50
2023-03-06T18:09:32.982Z,2.60
2023-03-06T18:14:37.044Z,2.47
2023-03-06T18:19:41.289Z,2.50
2023-03-06T18:24:46.082Z,2.75
2023-03-06T18:29:52.089Z,2.70
2023-03-06T18:34:56.298Z,2.45
2023-03-06T18:40:01.043Z,2.50
2023-03-06T18:45:04.910Z,2.70
2023-03-06T18:50:11.602Z,2.70
2023-03-06T18:55:16.670Z,2.67
2023-03-06T19:00:22.276Z,2.70
2023-03-06T19:05:25.660Z,2.60
2023-03-06T19:10:31.212Z,2.47
2023-03-06T19:15:45.480Z,2.50
2023-03-06T19:20:48.876Z,2.40
2023-03-06T19:26:01.345Z,2.55
2023-03-06T19:31:12.304Z,2.47
2023-03-06T19:36:18.454Z,2.50
2023-03-06T19:41:23.295Z,2.10
2023-03-06T19:46:28.142Z,2.42
2023-03-06T19:51:31.695Z,2.05
2023-03-06T19:56:36.679Z,2.60
2023-03-06T20:01:40.453Z,2.30
2023-03-06T20:06:45.424Z,2.20
2023-03-06T20:11:50.195Z,2.15
2023-03-06T20:16:53.852Z,2.33
2023-03-06T20:22:08.561Z,2.25
2023-03-06T20:27:15.383Z,2.38
2023-03-06T20:32:21.068Z,2.47
2023-03-06T20:37:24.493Z,2.20
2023-03-06T20:42:29.269Z,2.47
2023-03-06T20:47:32.701Z,2.30
2023-03-06T20:52:36.291Z,2.30
2023-03-06T20:57:41.166Z,2.17
2023-03-06T21:02:44.629Z,2.25
2023-03-06T21:07:48.064Z,2.22
2023-03-06T21:12:52.931Z,2.05
2023-03-06T21:17:56.341Z,2.05
2023-03-06T21:23:01.625Z,2.00
2023-03-06T21:28:06.384Z,2.13
2023-03-06T21:33:10.780Z,2.00
2023-03-06T21:38:15.477Z,2.00
2023-03-06T21:43:20.329Z,2.00
2023-03-06T21:48:23.800Z,2.00
2023-03-06T21:53:27.290Z,2.05
2023-03-06T21:58:32.564Z,2.00
2023-03-06T22:03:36.013Z,2.10
2023-03-06T22:08:39.724Z,1.95
2023-03-06T22:13:44.984Z,2.10
2023-03-06T22:18:50.631Z,2.08
2023-03-06T22:23:58.340Z,1.98
2023-03-06T22:29:03.144Z,1.83
2023-03-06T22:34:06.582Z,2.00
2023-03-06T22:39:13.723Z,1.90
2023-03-06T22:44:20.543Z,1.80
2023-03-06T22:49:23.912Z,2.00
2023-03-06T22:54:27.337Z,1.90
2023-03-06T22:59:32.322Z,1.90
2023-03-06T23:04:35.749Z,1.75
2023-03-06T23:09:39.143Z,1.83
2023-03-06T23:15:02.417Z,1.75
2023-03-06T23:20:24.556Z,1.67
2023-03-06T23:25:46.371Z,1.80
2023-03-06T23:30:51.185Z,1.63
2023-03-06T23:35:54.684Z,1.67
2023-03-06T23:41:01.994Z,1.77
2023-03-06T23:46:08.194Z,1.60
2023-03-06T23:51:16.593Z,1.92
2023-03-06T23:56:20.043Z,1.92
